Patrick AFB, FL

3:24 PM EDT on October 30, 2014 (GMT -0400)
Patrick Air Force Base | Change Station
CLOSE
Current Station
Airport
Location: Cocoa Beach,
Elevation: 10 ft
Nearby Weather Stations

Elev 10 ft 28.24 °N, 80.60 °W | Updated 26 minutes ago

Clear
Clear
81 °F
Feels Like 84 °F
N
9
Wind Variable Wind from ENE

Today
High -- | Low -- °F
--% Chance of Precip.
Yesterday
High -- | Low -- °F
Precip. -- in
7:32 AM 6:39 PM
Waxing Crescent, 46% visible
Pressure 29.91 in
Visibility 10.0 miles
Clouds Clear
Heat Index 84 °F
Dew Point 66 °F
Humidity 60%
Rainfall 0.00 in
Snow Depth Not available.
UV 6 out of 12
Pollen 4.90 out of 12
Air Quality Not available.
Flu Activity Not available.
METAR KCOF 301858Z AUTO 07008KT 10SM CLR 27/19 A2989 RMK AO2 SLP126 T02740191

More Conditions Fewer Conditions

Pressure 29.91 in
Visibility 10.0 miles
Clouds Clear
Heat Index 84 °F
Dew Point 66 °F
Humidity 60%
Rainfall 0.00 in
Snow Depth Not available.
UV 6 out of 12
Pollen 4.90 out of 12
Air Quality Not available.
Flu Activity Not available.
METAR KCOF 301858Z AUTO 07008KT 10SM CLR 27/19 A2989 RMK AO2 SLP126 T02740191

More Conditions Fewer Conditions

Nowcast | as of 12:13 PM EDT on October 30, 2014

Scattered showers will move northeast from Northern Lake toward Volusia County into mid afternoon. Rainfall amounts will generally be light...less than a quarter inch. The remainder of east central Florida will see temperatures climb into the mid 80s by 3 PM with mostly sunny skies from Osceola and Brevard County south to Lake Okeechobee and the Treasure Coast. Additional details...including graphics are available online at: http://www.Srh.NOAA.Gov/mlb/blog.Php

×

10-Day Weather Forecast

Almanac

Astronomy

Oct. 30, 2014 Rise Set
Actual Time
Civil Twilight
Nautical Twilight
Astronomical Twilight
Moon
Length of Visible Light
Length of Day
Tomorrow will be .
, % of the Moon is Illuminated

Today's Extremes

State Highs State Lows

Community

WunderPhotos

Upload Photos

1,766,451 photos uploaded!

WunderBlogs® & News

Nearby

Air Quality

  Air Quality AQ Index Pollutant
Not available.

Snow Depth

Station Depth Elevation

Earthquake Activity

City Distance Mag. Time & Date
Minimum magnitude displayed is 2.5.

Coastal Water Temperatures

Place Temperature

Nearby Weather Stations